createdAt,value
2023-01-11T00:00:47.050Z,13.05
2023-01-11T00:03:14.335Z,12.63
2023-01-11T00:05:42.184Z,14.50
2023-01-11T00:08:08.961Z,13.43
2023-01-11T00:10:36.220Z,12.43
2023-01-11T00:13:04.620Z,11.07
2023-01-11T00:15:31.166Z,11.48
2023-01-11T00:17:57.760Z,10.75
2023-01-11T00:20:24.996Z,11.07
2023-01-11T00:22:51.597Z,12.68
2023-01-11T00:25:18.350Z,11.45
2023-01-11T00:27:44.932Z,9.40
2023-01-11T00:30:11.972Z,11.23
2023-01-11T00:32:38.474Z,12.52
2023-01-11T00:35:05.501Z,12.40
2023-01-11T00:37:31.984Z,13.27
2023-01-11T00:39:58.465Z,12.50
2023-01-11T00:42:43.428Z,10.43
2023-01-11T00:45:28.955Z,9.80
2023-01-11T00:47:58.116Z,10.30
2023-01-11T00:50:26.777Z,11.98
2023-01-11T00:52:53.201Z,10.57
2023-01-11T00:55:19.672Z,10.55
2023-01-11T00:57:46.133Z,11.57
2023-01-11T01:00:13.199Z,11.52
2023-01-11T01:02:40.283Z,13.48
2023-01-11T01:05:07.238Z,8.27
2023-01-11T01:07:33.706Z,13.75
2023-01-11T01:10:00.321Z,12.95
2023-01-11T01:12:45.299Z,9.30
2023-01-11T01:15:12.138Z,9.73
2023-01-11T01:17:38.596Z,8.38
2023-01-11T01:20:06.020Z,10.40
2023-01-11T01:22:32.595Z,8.27
2023-01-11T01:24:59.014Z,10.52
2023-01-11T01:27:25.744Z,7.65
2023-01-11T01:29:52.275Z,6.80
2023-01-11T01:32:18.719Z,9.95
2023-01-11T01:34:45.219Z,8.48
2023-01-11T01:37:11.728Z,10.07
2023-01-11T01:39:38.600Z,9.55
2023-01-11T01:42:06.355Z,7.88
2023-01-11T01:45:10.433Z,8.82
2023-01-11T01:47:52.493Z,6.22
2023-01-11T01:50:27.275Z,5.20
2023-01-11T01:52:59.063Z,6.72
2023-01-11T01:55:30.476Z,6.65
2023-01-11T01:57:59.014Z,7.28
2023-01-11T02:00:26.500Z,6.47
2023-01-11T02:02:53.739Z,7.72
2023-01-11T02:05:20.924Z,7.00
2023-01-11T02:07:47.740Z,6.57
2023-01-11T02:10:17.488Z,4.93
2023-01-11T02:13:09.920Z,5.63
2023-01-11T02:15:37.479Z,5.63
2023-01-11T02:18:09.677Z,5.32
2023-01-11T02:20:42.349Z,5.60
2023-01-11T02:23:27.048Z,3.95
2023-01-11T02:26:21.254Z,3.95
2023-01-11T02:28:50.498Z,4.28
2023-01-11T02:31:28.720Z,5.47
2023-01-11T02:34:17.057Z,5.88
2023-01-11T02:37:05.706Z,4.65
2023-01-11T02:39:44.487Z,5.60
2023-01-11T02:43:07.524Z,5.60
2023-01-11T02:45:52.281Z,5.57
2023-01-11T02:48:37.395Z,5.75
2023-01-11T02:51:19.977Z,7.65
2023-01-11T02:53:55.991Z,9.65
2023-01-11T02:56:28.954Z,7.78
2023-01-11T02:58:57.890Z,7.32
2023-01-11T03:01:25.587Z,7.80
2023-01-11T03:03:53.561Z,7.75
2023-01-11T03:06:24.682Z,6.90
2023-01-11T03:09:22.794Z,7.13
2023-01-11T03:12:30.035Z,9.38
2023-01-11T03:15:12.725Z,6.97
2023-01-11T03:18:16.609Z,8.50
2023-01-11T03:20:54.589Z,7.60
2023-01-11T03:23:41.687Z,7.32
2023-01-11T03:26:21.333Z,10.30
2023-01-11T03:29:20.906Z,8.15
2023-01-11T03:31:56.101Z,7.70
2023-01-11T03:34:38.183Z,7.50
2023-01-11T03:37:24.354Z,7.00
2023-01-11T03:40:24.362Z,6.38
2023-01-11T03:43:11.014Z,5.93
2023-01-11T03:45:46.009Z,5.50
2023-01-11T03:48:19.081Z,6.18
2023-01-11T03:50:47.904Z,2.92
2023-01-11T03:53:17.186Z,4.85
2023-01-11T03:55:45.308Z,2.75
2023-01-11T03:58:11.875Z,1.65
2023-01-11T04:00:38.951Z,1.45
2023-01-11T04:03:05.798Z,1.52
2023-01-11T04:05:34.361Z,2.45
2023-01-11T04:08:00.796Z,2.60
2023-01-11T04:10:27.430Z,3.42
2023-01-11T04:12:53.918Z,2.47
2023-01-11T04:15:20.332Z,3.67
2023-01-11T04:17:46.800Z,4.45
2023-01-11T04:20:13.484Z,4.03
2023-01-11T04:22:39.963Z,4.13
2023-01-11T04:25:08.862Z,6.70
2023-01-11T04:27:35.621Z,6.28
2023-01-11T04:30:04.926Z,6.30
2023-01-11T04:32:31.330Z,8.88
2023-01-11T04:34:57.808Z,8.07
2023-01-11T04:37:24.233Z,12.02
2023-01-11T04:39:50.772Z,11.13
2023-01-11T04:42:20.167Z,11.85
2023-01-11T04:44:50.966Z,11.38
2023-01-11T04:47:19.477Z,10.73
2023-01-11T04:49:46.534Z,11.13
2023-01-11T04:52:15.329Z,11.07
2023-01-11T04:54:42.243Z,11.75
2023-01-11T04:57:13.062Z,11.43
2023-01-11T04:59:39.559Z,13.07
2023-01-11T05:02:06.190Z,10.57
2023-01-11T05:04:32.959Z,11.35
2023-01-11T05:06:59.465Z,11.10
2023-01-11T05:09:26.155Z,12.10
2023-01-11T05:11:52.578Z,10.13
2023-01-11T05:14:19.083Z,15.48
2023-01-11T05:16:45.549Z,13.50
2023-01-11T05:19:12.877Z,9.82
2023-01-11T05:21:41.603Z,10.57
2023-01-11T05:24:13.789Z,8.90
2023-01-11T05:26:43.207Z,13.07
2023-01-11T05:29:12.546Z,11.23
2023-01-11T05:31:40.572Z,11.50
2023-01-11T05:34:07.946Z,13.20
2023-01-11T05:36:35.501Z,11.15
2023-01-11T05:39:02.562Z,9.85
2023-01-11T05:41:29.019Z,12.27
2023-01-11T05:44:14.501Z,15.13
2023-01-11T05:46:43.199Z,14.93
2023-01-11T05:49:11.617Z,11.45
2023-01-11T05:51:38.340Z,11.63
2023-01-11T05:54:07.145Z,14.55
2023-01-11T05:56:33.702Z,10.80
2023-01-11T05:59:00.409Z,14.50
2023-01-11T06:01:27.326Z,13.82
2023-01-11T06:03:53.814Z,15.48
2023-01-11T06:06:21.411Z,14.90
2023-01-11T06:08:48.674Z,15.75
2023-01-11T06:11:15.532Z,12.73
2023-01-11T06:13:42.365Z,13.13
2023-01-11T06:16:17.686Z,8.30
2023-01-11T06:18:46.582Z,14.32
2023-01-11T06:21:13.434Z,11.45
2023-01-11T06:23:43.170Z,13.80
2023-01-11T06:26:13.546Z,11.32
2023-01-11T06:28:40.593Z,14.70
2023-01-11T06:31:07.699Z,14.52
2023-01-11T06:33:34.580Z,12.68
2023-01-11T06:36:09.984Z,11.55
2023-01-11T06:38:37.574Z,13.18
2023-01-11T06:41:07.224Z,13.25
2023-01-11T06:43:34.342Z,11.68
2023-01-11T06:46:00.983Z,13.80
2023-01-11T06:48:28.319Z,10.43
2023-01-11T06:50:57.497Z,14.95
2023-01-11T06:53:28.428Z,12.95
2023-01-11T06:55:57.195Z,12.05
2023-01-11T06:58:24.990Z,11.38
2023-01-11T07:00:57.168Z,14.93
2023-01-11T07:03:25.564Z,11.52
2023-01-11T07:05:53.586Z,10.32
2023-01-11T07:08:20.516Z,10.02
2023-01-11T07:10:47.098Z,10.18
2023-01-11T07:13:17.648Z,15.18
2023-01-11T07:15:46.180Z,9.05
2023-01-11T07:18:12.809Z,10.57
2023-01-11T07:20:39.368Z,11.73
2023-01-11T07:23:07.687Z,13.23
2023-01-11T07:25:35.049Z,13.25
2023-01-11T07:28:03.900Z,12.82
2023-01-11T07:30:33.466Z,7.13
2023-01-11T07:33:04.120Z,8.43
2023-01-11T07:35:30.596Z,11.88
2023-01-11T07:37:57.116Z,12.85
2023-01-11T07:40:23.641Z,11.40
2023-01-11T07:43:10.201Z,12.85
2023-01-11T07:45:45.723Z,10.82
2023-01-11T07:48:13.397Z,6.28
2023-01-11T07:50:42.809Z,11.68
2023-01-11T07:53:10.812Z,11.65
2023-01-11T07:55:38.803Z,10.60
2023-01-11T07:58:06.385Z,10.93
2023-01-11T08:00:36.010Z,10.57
2023-01-11T08:03:02.932Z,11.40
2023-01-11T08:05:29.982Z,9.90
2023-01-11T08:07:56.552Z,13.43
2023-01-11T08:10:23.179Z,15.55
2023-01-11T08:13:08.346Z,13.15
2023-01-11T08:15:42.216Z,12.43
2023-01-11T08:18:09.769Z,15.27
2023-01-11T08:20:36.461Z,11.88
2023-01-11T08:23:10.815Z,14.10
2023-01-11T08:25:38.081Z,10.23
2023-01-11T08:28:06.118Z,12.82
2023-01-11T08:30:33.158Z,12.63
2023-01-11T08:33:01.978Z,14.75
2023-01-11T08:35:28.824Z,11.00
2023-01-11T08:37:55.265Z,14.43
2023-01-11T08:40:24.126Z,10.73
2023-01-11T08:42:56.182Z,11.20
2023-01-11T08:45:22.600Z,8.27
2023-01-11T08:47:50.769Z,15.45
2023-01-11T08:50:18.589Z,14.70
2023-01-11T08:52:45.475Z,14.95
2023-01-11T08:55:11.925Z,18.55
2023-01-11T08:57:38.485Z,14.48
2023-01-11T09:00:07.728Z,17.30
2023-01-11T09:02:34.241Z,13.13
2023-01-11T09:05:00.752Z,18.80
2023-01-11T09:07:27.174Z,12.15
2023-01-11T09:09:53.745Z,18.08
2023-01-11T09:12:20.264Z,9.93
2023-01-11T09:14:46.724Z,15.88
2023-01-11T09:17:13.169Z,11.35
2023-01-11T09:19:39.649Z,17.70
2023-01-11T09:22:06.104Z,14.25
2023-01-11T09:24:32.821Z,15.52
2023-01-11T09:27:00.412Z,15.45
2023-01-11T09:29:27.094Z,20.85
2023-01-11T09:31:53.620Z,15.45
2023-01-11T09:34:21.010Z,15.05
2023-01-11T09:36:48.742Z,17.67
2023-01-11T09:39:18.711Z,10.02
2023-01-11T09:42:22.384Z,12.63
2023-01-11T09:44:52.049Z,12.65
2023-01-11T09:47:40.994Z,16.58
2023-01-11T09:50:16.493Z,14.40
2023-01-11T09:52:47.381Z,15.80
2023-01-11T09:55:19.972Z,14.18
2023-01-11T09:58:08.370Z,13.57
2023-01-11T10:00:38.104Z,10.63
2023-01-11T10:03:42.602Z,19.65
2023-01-11T10:06:19.969Z,9.50
2023-01-11T10:18:22.984Z,15.32
2023-01-11T10:18:37.856Z,15.20
2023-01-11T10:20:56.830Z,15.88
2023-01-11T10:23:38.844Z,17.63
2023-01-11T10:26:13.063Z,14.55
2023-01-11T10:29:15.360Z,18.98
2023-01-11T10:32:22.211Z,12.48
2023-01-11T10:35:12.740Z,16.42
2023-01-11T10:37:58.895Z,14.80
2023-01-11T10:41:08.547Z,14.52
2023-01-11T10:43:41.419Z,20.33
2023-01-11T10:46:18.252Z,12.55
2023-01-11T10:48:46.412Z,13.52
2023-01-11T10:51:37.079Z,17.48
2023-01-11T10:54:22.120Z,13.98
2023-01-11T10:57:11.372Z,17.25
2023-01-11T10:59:56.504Z,15.63
2023-01-11T11:02:29.062Z,14.98
2023-01-11T11:05:11.111Z,12.63
2023-01-11T11:07:46.830Z,10.25
2023-01-11T11:10:35.791Z,15.95
2023-01-11T11:13:46.561Z,15.93
2023-01-11T11:16:22.023Z,18.33
2023-01-11T11:18:50.719Z,12.52
2023-01-11T11:21:30.576Z,14.07
2023-01-11T11:24:21.233Z,20.88
2023-01-11T11:26:58.099Z,12.85
2023-01-11T11:29:30.430Z,16.42
2023-01-11T11:31:59.816Z,12.23
2023-01-11T11:34:28.102Z,11.07
2023-01-11T11:36:58.741Z,14.00
2023-01-11T11:39:33.929Z,13.90
2023-01-11T11:42:14.894Z,16.30
2023-01-11T11:44:41.371Z,13.15
2023-01-11T11:47:17.520Z,12.70
2023-01-11T11:49:44.112Z,14.65
2023-01-11T11:52:17.376Z,13.25
2023-01-11T11:54:56.098Z,10.27
2023-01-11T11:57:28.465Z,12.05
2023-01-11T12:00:31.821Z,9.82
2023-01-11T12:03:04.474Z,12.80
2023-01-11T12:05:31.302Z,12.68
2023-01-11T12:07:58.129Z,11.18
2023-01-11T12:10:27.298Z,16.10
2023-01-11T12:12:56.495Z,10.77
2023-01-11T12:15:28.868Z,12.10
2023-01-11T12:17:56.579Z,16.00
2023-01-11T12:20:23.008Z,10.55
2023-01-11T12:22:50.260Z,14.82
2023-01-11T12:25:25.250Z,17.33
2023-01-11T12:28:28.138Z,18.02
2023-01-11T12:30:57.547Z,10.00
2023-01-11T12:33:32.956Z,15.18
2023-01-11T12:36:06.130Z,14.75
2023-01-11T12:38:58.441Z,15.18
2023-01-11T12:41:43.649Z,15.27
2023-01-11T12:44:14.525Z,14.35
2023-01-11T12:47:18.157Z,17.08
2023-01-11T12:50:05.718Z,15.52
2023-01-11T12:53:09.762Z,15.48
2023-01-11T12:55:42.191Z,15.70
2023-01-11T12:58:22.581Z,15.32
2023-01-11T13:01:06.577Z,17.50
2023-01-11T13:03:35.775Z,11.07
2023-01-11T13:06:23.978Z,14.18
2023-01-11T13:08:56.425Z,13.75
2023-01-11T13:11:36.272Z,11.55
2023-01-11T13:14:22.904Z,14.13
2023-01-11T13:17:24.955Z,8.70
2023-01-11T13:19:57.413Z,10.13
2023-01-11T13:22:30.419Z,9.18
2023-01-11T13:25:01.433Z,15.38
2023-01-11T13:27:31.735Z,13.48
2023-01-11T13:30:01.021Z,13.13
2023-01-11T13:32:34.093Z,12.88
2023-01-11T13:35:21.711Z,9.07
2023-01-11T13:37:57.173Z,12.98
2023-01-11T13:40:32.710Z,12.10
2023-01-11T13:43:22.198Z,17.90
2023-01-11T13:45:55.555Z,11.27
2023-01-11T13:48:31.574Z,15.10
2023-01-11T13:51:26.383Z,15.48
2023-01-11T13:54:08.169Z,12.13
2023-01-11T13:56:41.064Z,15.98
2023-01-11T13:59:28.421Z,12.85
2023-01-11T14:02:04.615Z,14.52
2023-01-11T14:04:44.773Z,16.48
2023-01-11T14:07:21.510Z,15.82
2023-01-11T14:10:03.498Z,14.50
2023-01-11T14:12:54.248Z,15.45
2023-01-11T14:15:32.751Z,10.23
2023-01-11T14:18:25.221Z,12.45
2023-01-11T14:21:02.902Z,13.45
2023-01-11T14:23:43.076Z,13.13
2023-01-11T14:26:31.804Z,14.93
2023-01-11T14:29:04.261Z,18.98
2023-01-11T14:32:01.368Z,14.30
2023-01-11T14:34:58.794Z,18.45
2023-01-11T14:37:46.517Z,14.25
2023-01-11T14:40:22.465Z,14.40
2023-01-11T14:43:07.072Z,12.63
2023-01-11T14:45:43.296Z,12.35
2023-01-11T14:48:24.788Z,14.82
2023-01-11T14:51:20.916Z,17.05
2023-01-11T14:53:57.745Z,8.95
2023-01-11T14:56:42.567Z,17.67
2023-01-11T14:59:28.880Z,21.55
2023-01-11T15:02:04.747Z,17.20
2023-01-11T15:04:37.505Z,18.90
2023-01-11T15:07:30.021Z,23.00
2023-01-11T15:09:58.626Z,12.80
2023-01-11T15:12:40.799Z,14.77
2023-01-11T15:15:13.029Z,14.43
2023-01-11T15:17:59.154Z,13.45
2023-01-11T15:20:26.724Z,13.95
2023-01-11T15:23:02.600Z,10.70
2023-01-11T15:25:33.744Z,16.65
2023-01-11T15:28:38.258Z,17.80
2023-01-11T15:31:05.765Z,16.33
2023-01-11T15:33:48.835Z,17.02
2023-01-11T15:36:15.600Z,13.45
2023-01-11T15:39:02.999Z,16.95
2023-01-11T15:42:08.543Z,12.55
2023-01-11T15:44:37.578Z,17.27
2023-01-11T15:47:25.981Z,13.73
2023-01-11T15:50:30.251Z,14.98
2023-01-11T15:53:11.991Z,14.65
2023-01-11T15:56:13.517Z,14.95
2023-01-11T15:59:01.207Z,15.98
2023-01-11T16:01:28.736Z,15.30
2023-01-11T16:04:01.377Z,19.55
2023-01-11T16:06:33.814Z,15.48
2023-01-11T16:09:33.635Z,19.30
2023-01-11T16:12:35.222Z,15.40
2023-01-11T16:15:24.899Z,12.65
2023-01-11T16:20:24.953Z,14.85
2023-01-11T16:23:01.600Z,11.02
2023-01-11T16:25:34.624Z,15.13
2023-01-11T16:28:02.529Z,18.63
2023-01-11T16:30:29.479Z,18.92
2023-01-11T16:33:23.545Z,14.13
2023-01-11T16:35:50.122Z,12.15
2023-01-11T16:38:23.531Z,10.30
2023-01-11T16:40:53.321Z,13.55
2023-01-11T16:43:27.216Z,12.65
2023-01-11T16:45:54.705Z,10.15
2023-01-11T16:48:24.240Z,12.45
2023-01-11T16:51:19.344Z,10.73
2023-01-11T16:53:57.785Z,11.82
2023-01-11T16:56:25.032Z,9.93
2023-01-11T16:59:14.551Z,11.23
2023-01-11T17:01:53.189Z,7.53
2023-01-11T17:04:37.997Z,9.68
2023-01-11T17:07:14.860Z,9.93
2023-01-11T17:09:43.742Z,8.75
2023-01-11T17:12:25.391Z,12.77
2023-01-11T17:15:33.319Z,14.15
2023-01-11T17:18:04.460Z,10.18
2023-01-11T17:20:31.874Z,10.70
2023-01-11T17:22:59.164Z,9.27
2023-01-11T17:25:44.122Z,11.77
2023-01-11T17:28:18.580Z,9.95
2023-01-11T17:30:48.759Z,13.57
2023-01-11T17:33:31.979Z,12.90
2023-01-11T17:35:59.807Z,11.68
2023-01-11T17:38:27.928Z,12.90
2023-01-11T17:40:56.786Z,11.90
2023-01-11T17:43:46.913Z,14.05
2023-01-11T17:46:19.752Z,12.48
2023-01-11T17:48:55.137Z,8.18
2023-01-11T17:51:31.451Z,10.30
2023-01-11T17:53:58.141Z,12.70
2023-01-11T17:56:39.223Z,14.05
2023-01-11T17:59:11.624Z,10.65
2023-01-11T18:01:38.521Z,11.63
2023-01-11T18:04:05.050Z,17.05
2023-01-11T18:06:36.003Z,14.00
2023-01-11T18:11:32.844Z,15.45
2023-01-11T18:14:03.002Z,10.70
2023-01-11T18:16:29.667Z,16.70
2023-01-11T18:18:56.821Z,12.00
2023-01-11T18:21:26.329Z,10.95
2023-01-11T18:24:11.074Z,15.18
2023-01-11T18:26:40.325Z,10.38
2023-01-11T18:29:21.197Z,15.85
2023-01-11T18:31:47.735Z,12.98
2023-01-11T18:34:14.188Z,10.48
2023-01-11T18:36:40.701Z,10.65
2023-01-11T18:39:12.343Z,12.48
2023-01-11T18:41:57.917Z,13.43
2023-01-11T18:44:25.055Z,12.57
2023-01-11T18:46:54.429Z,12.25
2023-01-11T18:49:21.084Z,14.07
2023-01-11T18:51:47.523Z,13.90
2023-01-11T18:54:18.322Z,14.20
2023-01-11T18:56:44.960Z,9.20
2023-01-11T18:59:11.580Z,14.10
2023-01-11T19:01:54.011Z,9.38
2023-01-11T19:04:22.770Z,14.45
2023-01-11T19:06:49.310Z,11.63
2023-01-11T19:09:15.830Z,14.00
2023-01-11T19:11:42.373Z,15.73
2023-01-11T19:14:10.512Z,11.30
2023-01-11T19:16:36.941Z,12.20
2023-01-11T19:19:03.675Z,13.10
2023-01-11T19:21:30.113Z,8.32
2023-01-11T19:23:58.150Z,11.50
2023-01-11T19:26:24.947Z,10.77
2023-01-11T19:28:51.516Z,12.13
2023-01-11T19:31:18.116Z,14.23
2023-01-11T19:33:46.643Z,11.85
2023-01-11T19:36:13.240Z,7.85
2023-01-11T19:38:39.967Z,11.15
2023-01-11T19:41:08.854Z,11.98
2023-01-11T19:43:36.079Z,9.40
2023-01-11T19:46:03.941Z,15.55
2023-01-11T19:48:34.882Z,12.25
2023-01-11T19:51:10.391Z,14.25
2023-01-11T19:53:37.161Z,16.45
2023-01-11T19:56:08.845Z,13.27
2023-01-11T19:58:38.640Z,7.28
2023-01-11T20:01:10.457Z,12.50
2023-01-11T20:03:37.027Z,10.25
2023-01-11T20:06:09.643Z,11.32
2023-01-11T20:08:38.527Z,12.68
2023-01-11T20:11:13.368Z,8.55
2023-01-11T20:13:40.681Z,10.27
2023-01-11T20:16:09.607Z,13.25
2023-01-11T20:18:36.905Z,13.93
2023-01-11T20:21:03.897Z,11.52
2023-01-11T20:23:31.435Z,14.07
2023-01-11T20:26:07.052Z,11.05
2023-01-11T20:28:33.977Z,15.02
2023-01-11T20:31:02.242Z,12.65
2023-01-11T20:33:28.978Z,8.30
2023-01-11T20:35:55.474Z,9.73
2023-01-11T20:38:21.990Z,10.82
2023-01-11T20:40:48.458Z,12.50
2023-01-11T20:43:17.914Z,13.05
2023-01-11T20:45:53.956Z,12.25
2023-01-11T20:48:20.435Z,16.02
2023-01-11T20:50:46.886Z,7.93
2023-01-11T20:53:14.967Z,15.40
2023-01-11T20:55:41.457Z,14.23
2023-01-11T20:58:07.994Z,12.55
2023-01-11T21:00:34.659Z,13.57
2023-01-11T21:03:01.154Z,14.85
2023-01-11T21:05:27.640Z,9.93
2023-01-11T21:07:54.117Z,11.55
2023-01-11T21:10:20.598Z,16.73
2023-01-11T21:12:50.413Z,9.23
2023-01-11T21:15:16.946Z,10.90
2023-01-11T21:17:43.372Z,13.98
2023-01-11T21:20:10.937Z,11.55
2023-01-11T21:22:37.351Z,14.40
2023-01-11T21:25:03.971Z,11.50
2023-01-11T21:27:30.377Z,8.73
2023-01-11T21:29:57.160Z,11.38
2023-01-11T21:32:23.625Z,8.93
2023-01-11T21:34:50.092Z,7.20
2023-01-11T21:37:16.609Z,10.40
2023-01-11T21:39:43.108Z,10.35
2023-01-11T21:42:09.715Z,8.27
2023-01-11T21:44:36.155Z,12.30
2023-01-11T21:47:06.536Z,10.13
2023-01-11T21:49:33.647Z,11.07
2023-01-11T21:52:01.201Z,10.10
2023-01-11T21:54:27.808Z,11.30
2023-01-11T21:56:54.535Z,10.02
2023-01-11T21:59:21.249Z,11.93
2023-01-11T22:01:49.293Z,9.65
2023-01-11T22:04:18.339Z,13.93
2023-01-11T22:06:59.553Z,11.52
2023-01-11T22:09:27.483Z,8.85
2023-01-11T22:11:55.377Z,11.07
2023-01-11T22:14:21.894Z,14.20
2023-01-11T22:16:48.439Z,12.45
2023-01-11T22:19:15.283Z,12.05
2023-01-11T22:21:41.741Z,10.68
2023-01-11T22:24:11.083Z,11.18
2023-01-11T22:26:39.008Z,9.48
2023-01-11T22:29:17.495Z,11.82
2023-01-11T22:31:45.426Z,9.18
2023-01-11T22:34:13.671Z,11.55
2023-01-11T22:36:40.891Z,11.48
2023-01-11T22:39:07.649Z,9.20
2023-01-11T22:41:34.130Z,12.50
2023-01-11T22:44:00.687Z,11.27
2023-01-11T22:46:27.735Z,13.52
2023-01-11T22:48:54.449Z,7.88
2023-01-11T22:51:23.485Z,7.80
2023-01-11T22:53:51.891Z,10.90
2023-01-11T22:56:20.493Z,9.32
2023-01-11T22:58:47.464Z,12.02
2023-01-11T23:01:15.452Z,16.08
2023-01-11T23:03:42.023Z,11.25
2023-01-11T23:06:09.780Z,8.98
2023-01-11T23:08:40.758Z,11.68
2023-01-11T23:13:55.103Z,8.82
2023-01-11T23:16:22.638Z,8.18
2023-01-11T23:18:49.365Z,10.25
2023-01-11T23:21:16.770Z,10.35
2023-01-11T23:23:43.530Z,7.35
2023-01-11T23:26:12.135Z,9.23
2023-01-11T23:28:39.716Z,13.23
2023-01-11T23:31:17.190Z,14.10
2023-01-11T23:33:51.845Z,15.77
2023-01-11T23:36:20.570Z,12.40
2023-01-11T23:38:47.971Z,10.75
2023-01-11T23:41:35.106Z,10.23
2023-01-11T23:44:02.544Z,12.90
2023-01-11T23:46:47.762Z,12.30
2023-01-11T23:49:14.633Z,16.35
2023-01-11T23:51:41.892Z,9.63
2023-01-11T23:54:09.241Z,16.73
2023-01-11T23:56:36.143Z,14.68
2023-01-11T23:59:03.285Z,11.48
